createdAt,value
2023-05-09T00:03:53.672Z,17.6
2023-05-09T00:08:59.830Z,17.6
2023-05-09T00:14:06.035Z,17.6
2023-05-09T00:19:12.240Z,17.6
2023-05-09T00:24:18.468Z,17.6
2023-05-09T00:29:24.668Z,17.6
2023-05-09T00:34:30.868Z,17.5
2023-05-09T00:39:37.084Z,17.5
2023-05-09T00:44:43.290Z,17.5
2023-05-09T00:49:49.496Z,17.5
2023-05-09T00:54:55.752Z,17.5
2023-05-09T01:00:01.912Z,17.5
2023-05-09T01:05:07.144Z,17.5
2023-05-09T01:10:13.412Z,17.5
2023-05-09T01:15:19.592Z,17.5
2023-05-09T01:20:25.782Z,17.5
2023-05-09T01:25:31.980Z,17.4
2023-05-09T01:30:38.192Z,17.4
2023-05-09T01:35:44.429Z,17.4
2023-05-09T01:40:50.612Z,17.4
2023-05-09T01:45:56.820Z,17.4
2023-05-09T01:51:03.024Z,17.3
2023-05-09T02:01:15.546Z,17.3
2023-05-09T02:06:21.654Z,17.3
2023-05-09T02:11:27.900Z,17.3
2023-05-09T02:16:34.107Z,17.2
2023-05-09T02:21:40.295Z,17.2
2023-05-09T02:26:46.499Z,17.3
2023-05-09T02:31:52.725Z,17.3
2023-05-09T02:36:57.930Z,17.3
2023-05-09T02:42:04.129Z,17.3
2023-05-09T02:47:10.343Z,17.2
2023-05-09T02:52:15.569Z,17.2
2023-05-09T02:57:21.780Z,17.2
2023-05-09T03:02:28.086Z,17.2
2023-05-09T03:07:34.193Z,17.2
2023-05-09T03:12:40.461Z,17.1
2023-05-09T03:17:46.705Z,17.1
2023-05-09T03:22:52.813Z,17.1
2023-05-09T03:27:59.027Z,17.1
2023-05-09T03:33:05.270Z,17.1
2023-05-09T03:38:11.452Z,17.1
2023-05-09T03:43:17.659Z,17.1
2023-05-09T03:48:23.861Z,17.1
2023-05-09T03:53:30.087Z,17.1
2023-05-09T03:58:36.284Z,17.1
2023-05-09T04:03:42.597Z,17.0
2023-05-09T04:08:48.698Z,17.0
2023-05-09T04:13:54.908Z,17.0
2023-05-09T04:19:01.122Z,17.0
2023-05-09T04:24:07.331Z,17.0
2023-05-09T04:29:13.548Z,17.0
2023-05-09T04:34:19.744Z,17.0
2023-05-09T04:39:25.957Z,17.0
2023-05-09T04:44:32.156Z,17.0
2023-05-09T04:49:38.363Z,17.0
2023-05-09T04:54:44.575Z,17.0
2023-05-09T04:59:50.795Z,17.0
2023-05-09T05:05:10.051Z,17.0
2023-05-09T05:10:03.209Z,17.0
2023-05-09T05:15:09.413Z,17.1
2023-05-09T05:20:15.623Z,17.1
2023-05-09T05:25:21.828Z,17.2
2023-05-09T05:30:28.079Z,17.3
2023-05-09T05:35:34.239Z,17.4
2023-05-09T05:40:40.439Z,17.5
2023-05-09T05:45:46.675Z,17.6
2023-05-09T05:50:53.192Z,17.6
2023-05-09T05:55:59.068Z,17.6
2023-05-09T06:01:05.337Z,17.7
2023-05-09T06:06:11.481Z,17.7
2023-05-09T06:11:17.688Z,17.8
2023-05-09T06:16:23.955Z,17.8
2023-05-09T06:21:30.107Z,17.9
2023-05-09T06:26:36.323Z,17.9
2023-05-09T06:31:42.550Z,18.0
2023-05-09T06:36:48.751Z,18.0
2023-05-09T06:41:54.954Z,18.1
2023-05-09T06:47:01.148Z,18.2
2023-05-09T06:52:07.414Z,18.3
2023-05-09T06:57:13.566Z,18.5
2023-05-09T07:02:19.801Z,18.6
2023-05-09T07:07:26.034Z,18.8
2023-05-09T07:12:32.192Z,18.9
2023-05-09T07:17:38.423Z,18.9
2023-05-09T07:22:44.681Z,19.0
2023-05-09T07:27:50.822Z,19.1
2023-05-09T07:32:57.092Z,19.1
2023-05-09T07:38:03.242Z,19.2
2023-05-09T07:43:09.473Z,19.2
2023-05-09T07:48:15.652Z,19.3
2023-05-09T07:53:21.872Z,19.4
2023-05-09T07:58:28.081Z,19.5
2023-05-09T08:03:34.389Z,19.6
2023-05-09T08:08:40.509Z,19.7
2023-05-09T08:13:46.707Z,19.7
2023-05-09T08:18:52.913Z,19.8
2023-05-09T08:23:58.130Z,19.7
2023-05-09T08:29:04.350Z,19.7
2023-05-09T08:34:10.564Z,19.7
2023-05-09T08:39:16.752Z,19.6
2023-05-09T08:44:22.961Z,19.6
2023-05-09T08:49:29.189Z,19.5
2023-05-09T08:54:35.381Z,19.5
2023-05-09T08:59:41.588Z,19.6
2023-05-09T09:04:47.814Z,19.7
2023-05-09T09:09:54.019Z,19.8
2023-05-09T09:15:00.235Z,19.9
2023-05-09T09:20:06.462Z,20.0
2023-05-09T09:25:12.637Z,20.0
2023-05-09T09:30:18.839Z,20.0
2023-05-09T09:35:25.056Z,20.1
2023-05-09T09:40:31.254Z,20.1
2023-05-09T09:45:37.517Z,20.2
2023-05-09T09:50:43.680Z,20.1
2023-05-09T09:55:49.887Z,20.1
2023-05-09T10:00:56.109Z,20.1
2023-05-09T10:06:02.309Z,20.0
2023-05-09T10:11:08.517Z,19.9
2023-05-09T10:16:14.765Z,19.9
2023-05-09T10:21:20.927Z,19.8
2023-05-09T10:26:27.178Z,19.7
2023-05-09T10:31:33.444Z,19.7
2023-05-09T10:36:39.563Z,19.6
2023-05-09T10:41:45.760Z,19.5
2023-05-09T10:46:52.033Z,19.3
2023-05-09T10:51:58.184Z,19.2
2023-05-09T10:57:04.415Z,19.1
2023-05-09T11:02:10.600Z,18.9
2023-05-09T11:07:16.816Z,18.8
2023-05-09T11:12:23.009Z,18.6
2023-05-09T11:17:29.245Z,18.6
2023-05-09T11:22:35.440Z,18.4
2023-05-09T11:27:41.628Z,18.3
2023-05-09T11:32:47.921Z,18.3
2023-05-09T11:37:54.068Z,18.3
2023-05-09T11:43:00.272Z,18.3
2023-05-09T11:48:06.505Z,18.3
2023-05-09T11:53:12.686Z,18.3
2023-05-09T11:58:18.889Z,18.3
2023-05-09T12:03:25.310Z,18.3
2023-05-09T12:08:31.334Z,18.3
2023-05-09T12:13:37.518Z,18.3
2023-05-09T12:18:43.742Z,18.4
2023-05-09T12:23:51.745Z,18.4
2023-05-09T12:28:56.134Z,18.4
2023-05-09T12:34:02.345Z,18.5
2023-05-09T12:39:08.553Z,18.5
2023-05-09T12:44:14.766Z,18.4
2023-05-09T12:49:20.985Z,18.4
2023-05-09T12:54:27.192Z,18.4
2023-05-09T12:59:33.404Z,18.4
2023-05-09T13:04:39.715Z,18.3
2023-05-09T13:09:45.812Z,18.4
2023-05-09T13:14:52.024Z,18.3
2023-05-09T13:19:58.213Z,18.3
2023-05-09T13:25:04.435Z,18.3
2023-05-09T13:30:10.639Z,18.2
2023-05-09T13:35:16.854Z,18.1
2023-05-09T13:40:23.060Z,18.1
2023-05-09T13:45:29.285Z,18.1
2023-05-09T13:50:35.466Z,18.1
2023-05-09T13:55:40.688Z,18.1
2023-05-09T14:00:46.897Z,18.1
2023-05-09T14:05:53.110Z,18.0
2023-05-09T14:10:59.323Z,18.0
2023-05-09T14:16:05.564Z,18.1
2023-05-09T14:21:11.767Z,18.1
2023-05-09T14:26:17.938Z,18.1
2023-05-09T14:31:24.203Z,18.1
2023-05-09T14:36:30.357Z,18.2
2023-05-09T14:41:36.570Z,18.2
2023-05-09T14:46:42.823Z,18.3
2023-05-09T14:51:48.984Z,18.3
2023-05-09T14:56:55.197Z,18.3
2023-05-09T15:02:01.484Z,18.3
2023-05-09T15:07:07.629Z,18.3
2023-05-09T15:12:13.815Z,18.2
2023-05-09T15:17:20.022Z,18.2
2023-05-09T15:22:26.238Z,18.2
2023-05-09T15:27:32.521Z,18.1
2023-05-09T15:32:39.683Z,18.1
2023-05-09T15:37:44.865Z,18.1
2023-05-09T15:42:51.080Z,18.1
2023-05-09T15:47:57.322Z,18.0
2023-05-09T15:53:03.509Z,18.1
2023-05-09T15:58:09.700Z,18.1
2023-05-09T16:03:16.036Z,18.1
2023-05-09T16:08:22.115Z,18.1
2023-05-09T16:13:28.395Z,18.1
2023-05-09T16:18:34.532Z,18.1
2023-05-09T16:23:40.733Z,18.1
2023-05-09T16:28:46.945Z,18.1
2023-05-09T16:33:53.152Z,18.2
2023-05-09T16:38:59.353Z,18.1
2023-05-09T16:44:05.569Z,18.1
2023-05-09T16:49:11.890Z,18.1
2023-05-09T16:54:17.982Z,18.1
2023-05-09T16:59:24.193Z,18.1
2023-05-09T17:04:30.468Z,18.0
2023-05-09T17:09:36.621Z,18.0
2023-05-09T17:14:42.823Z,17.9
2023-05-09T17:19:49.027Z,17.9
2023-05-09T17:24:55.237Z,17.9
2023-05-09T17:30:01.443Z,17.8
2023-05-09T17:35:07.662Z,17.8
2023-05-09T17:40:14.277Z,17.7
2023-05-09T17:45:20.071Z,17.7
2023-05-09T17:50:26.281Z,17.7
2023-05-09T17:55:32.483Z,17.6
2023-05-09T18:00:38.696Z,17.6
2023-05-09T18:05:44.900Z,17.5
2023-05-09T18:10:51.108Z,17.5
2023-05-09T18:15:57.372Z,17.4
2023-05-09T18:21:03.531Z,17.4
2023-05-09T18:26:09.725Z,17.4
2023-05-09T18:31:15.988Z,17.3
2023-05-09T18:36:22.149Z,17.3
2023-05-09T18:41:28.362Z,17.2
2023-05-09T18:46:34.611Z,17.2
2023-05-09T18:51:40.781Z,17.1
2023-05-09T19:01:53.186Z,17.0
2023-05-09T19:06:59.422Z,17.0
2023-05-09T19:12:05.601Z,16.9
2023-05-09T19:17:11.821Z,16.9
2023-05-09T19:22:18.028Z,16.8
2023-05-09T19:32:29.544Z,16.7
2023-05-09T19:37:35.667Z,16.7
2023-05-09T19:42:40.888Z,16.7
2023-05-09T19:47:47.126Z,16.6
2023-05-09T19:52:53.317Z,16.6
2023-05-09T19:57:59.527Z,16.5
2023-05-09T20:03:05.827Z,16.5
2023-05-09T20:08:12.011Z,16.5
2023-05-09T20:13:18.179Z,16.5
2023-05-09T20:18:24.411Z,16.5
2023-05-09T20:23:30.600Z,16.5
2023-05-09T20:28:36.764Z,16.4
2023-05-09T20:33:42.969Z,16.5
2023-05-09T20:38:49.183Z,16.5
2023-05-09T20:43:55.390Z,16.4
2023-05-09T20:49:01.594Z,16.4
2023-05-09T20:54:07.818Z,16.4
2023-05-09T20:59:14.018Z,16.4
2023-05-09T21:04:20.241Z,16.4
2023-05-09T21:09:26.439Z,16.4
2023-05-09T21:14:32.642Z,16.4
2023-05-09T21:19:38.848Z,16.4
2023-05-09T21:24:45.060Z,16.4
2023-05-09T21:29:51.263Z,16.4
2023-05-09T21:34:57.468Z,16.3
2023-05-09T21:40:05.491Z,16.3
2023-05-09T21:45:09.887Z,16.3
2023-05-09T21:50:16.342Z,16.3
2023-05-09T22:00:28.505Z,16.2
2023-05-09T22:05:34.720Z,16.1
2023-05-09T22:10:40.934Z,16.1
2023-05-09T22:15:47.144Z,16.0
2023-05-09T22:20:53.357Z,16.0
2023-05-09T22:25:59.555Z,16.0
2023-05-09T22:31:05.766Z,16.0
2023-05-09T22:36:11.962Z,15.9
2023-05-09T22:41:18.180Z,15.9
2023-05-09T22:46:24.457Z,15.9
2023-05-09T22:51:30.585Z,15.9
2023-05-09T22:56:36.799Z,15.9
2023-05-09T23:01:43.066Z,15.8
2023-05-09T23:06:49.304Z,15.8
2023-05-09T23:11:55.452Z,15.8
2023-05-09T23:17:01.650Z,15.8
2023-05-09T23:22:07.836Z,15.8
2023-05-09T23:27:14.064Z,15.8
2023-05-09T23:32:20.265Z,15.8
2023-05-09T23:37:26.470Z,15.8
2023-05-09T23:42:33.041Z,15.8
2023-05-09T23:47:38.916Z,15.8
2023-05-09T23:52:45.111Z,15.8
2023-05-09T23:57:51.317Z,15.8
